Beaumont, California
Current Conditions -  °F | °C
As of 10:58 AM on Saturday 25 Oct 2014 (Local Time) from KRIV Reporting Station
Clear Clear  
Wind Chill: 79°   Ceiling: Unl
Heat Index: 79°   Visibility: 10mi
Dew Point: 43°   Wind: 2mph
Humidity: 28%   Direction: NA
Pressure: 30.08"   Gusts: NA
Location:  33.93°N, 116.97°W
Report Text: KRIV 251758Z AUTO VRB02KT 10SM CLR 26/06 A3008 RMK AO2 SLP176 T02590060 10259 20142 51010
Loading
Personal Weather Stations






























Interactive Weather Map
Tropical Storm Tracking
New forecast layout! Learn more

10-Day Weather Forecast

Advertisements
Track Severe Weather on mobile